createdAt,value
2023-05-01T00:00:32.000Z,12.6
2023-05-01T00:01:48.000Z,12.6
2023-05-01T00:03:04.030Z,12.5
2023-05-01T00:04:21.000Z,12.5
2023-05-01T00:05:37.000Z,12.5
2023-05-01T00:06:52.598Z,12.5
2023-05-01T00:08:09.000Z,12.5
2023-05-01T00:09:24.976Z,12.4
2023-05-01T00:10:41.000Z,12.5
2023-05-01T00:11:56.370Z,12.4
2023-05-01T00:13:13.000Z,12.4
2023-05-01T00:14:28.747Z,12.4
2023-05-01T00:15:44.937Z,12.4
2023-05-01T00:17:02.000Z,12.3
2023-05-01T00:18:18.000Z,12.3
2023-05-01T00:19:34.000Z,12.3
2023-05-01T00:20:50.000Z,12.3
2023-05-01T00:22:06.000Z,12.2
2023-05-01T00:23:23.000Z,12.2
2023-05-01T00:24:39.000Z,12.3
2023-05-01T00:25:55.000Z,12.3
2023-05-01T00:27:10.000Z,12.2
2023-05-01T00:28:25.843Z,12.2
2023-05-01T00:29:43.000Z,12.2
2023-05-01T00:30:59.000Z,12.2
2023-05-01T00:32:15.000Z,12.2
2023-05-01T00:33:31.000Z,12.1
2023-05-01T00:34:47.000Z,12.1
2023-05-01T00:36:03.000Z,12.1
2023-05-01T00:37:19.165Z,12
2023-05-01T00:38:36.000Z,12.1
2023-05-01T00:39:52.000Z,12.1
2023-05-01T00:41:08.000Z,12
2023-05-01T00:42:24.000Z,12.1
2023-05-01T00:43:39.127Z,12.2
2023-05-01T00:44:56.000Z,12.1
2023-05-01T00:46:12.000Z,12
2023-05-01T00:47:27.697Z,12
2023-05-01T00:48:44.000Z,12.1
2023-05-01T00:50:01.000Z,12.1
2023-05-01T00:51:16.267Z,12
2023-05-01T00:52:33.000Z,12
2023-05-01T00:53:49.000Z,12
2023-05-01T00:55:04.837Z,12
2023-05-01T00:56:22.000Z,12
2023-05-01T00:57:38.000Z,12
2023-05-01T00:58:54.000Z,12
2023-05-01T01:00:08.613Z,12
2023-05-01T01:01:24.804Z,12
2023-05-01T01:02:41.000Z,11.9
2023-05-01T01:03:58.000Z,11.9
2023-05-01T01:05:13.374Z,11.9
2023-05-01T01:06:30.000Z,12
2023-05-01T01:07:46.000Z,11.9
2023-05-01T01:09:02.000Z,11.8
2023-05-01T01:10:19.000Z,11.8
2023-05-01T01:11:35.000Z,11.9
2023-05-01T01:12:51.000Z,11.9
2023-05-01T01:14:07.000Z,11.9
2023-05-01T01:15:23.000Z,11.8
2023-05-01T01:16:39.000Z,11.9
2023-05-01T01:17:55.000Z,11.8
2023-05-01T01:19:11.000Z,11.9
2023-05-01T01:20:27.000Z,11.9
2023-05-01T01:21:43.000Z,11.9
2023-05-01T01:23:00.000Z,11.8
2023-05-01T01:24:15.241Z,11.8
2023-05-01T01:25:32.000Z,11.8
2023-05-01T01:26:47.621Z,11.6
2023-05-01T01:28:04.000Z,11.6
2023-05-01T01:29:20.002Z,11.7
2023-05-01T01:30:37.000Z,11.6
2023-05-01T01:31:53.000Z,11.6
2023-05-01T01:33:08.000Z,11.7
2023-05-01T01:34:23.778Z,11.6
2023-05-01T01:35:40.000Z,11.6
2023-05-01T01:36:57.000Z,11.7
2023-05-01T01:38:13.000Z,11.7
2023-05-01T01:39:29.000Z,11.6
2023-05-01T01:40:45.000Z,11.6
2023-05-01T01:42:00.920Z,11.6
2023-05-01T01:43:18.000Z,11.6
2023-05-01T01:44:34.000Z,11.6
2023-05-01T01:45:49.490Z,11.6
2023-05-01T01:47:05.680Z,11.6
2023-05-01T01:48:21.869Z,11.5
2023-05-01T01:49:38.000Z,11.5
2023-05-01T01:50:53.266Z,11.5
2023-05-01T01:52:09.456Z,11.6
2023-05-01T01:53:26.000Z,11.5
2023-05-01T01:54:41.837Z,11.4
2023-05-01T01:55:59.000Z,11.5
2023-05-01T01:57:14.217Z,11.5
2023-05-01T01:58:31.000Z,11.4
2023-05-01T01:59:46.597Z,11.4
2023-05-01T02:01:02.788Z,11.4
2023-05-01T02:02:18.978Z,11.5
2023-05-01T02:03:36.000Z,11.5
2023-05-01T02:04:52.000Z,11.5
2023-05-01T02:06:07.000Z,11.4
2023-05-01T02:07:23.000Z,11.4
2023-05-01T02:08:39.000Z,11.4
2023-05-01T02:09:55.134Z,11.4
2023-05-01T02:11:12.000Z,11.4
2023-05-01T02:12:28.000Z,11.3
2023-05-01T02:13:43.703Z,11.3
2023-05-01T02:15:00.000Z,11.4
2023-05-01T02:16:17.000Z,11.4
2023-05-01T02:17:32.273Z,11.3
2023-05-01T02:18:48.463Z,11.3
2023-05-01T02:20:05.000Z,11.3
2023-05-01T02:21:21.000Z,11.3
2023-05-01T02:22:38.000Z,11.2
2023-05-01T02:23:53.000Z,11.2
2023-05-01T02:25:09.000Z,11.1
2023-05-01T02:26:25.000Z,11.1
2023-05-01T02:27:41.000Z,11
2023-05-01T02:28:56.999Z,11.1
2023-05-01T02:30:14.000Z,11.1
2023-05-01T02:31:30.000Z,11.1
2023-05-01T02:32:46.000Z,11.1
2023-05-01T02:34:02.000Z,11
2023-05-01T02:35:18.000Z,11
2023-05-01T02:36:35.000Z,11
2023-05-01T02:37:51.000Z,11
2023-05-01T02:39:07.000Z,10.9
2023-05-01T02:40:22.000Z,11
2023-05-01T02:41:37.916Z,11
2023-05-01T02:42:55.000Z,11
2023-05-01T02:44:11.000Z,10.8
2023-05-01T02:45:27.000Z,10.8
2023-05-01T02:46:42.676Z,10.9
2023-05-01T02:47:59.000Z,10.9
2023-05-01T02:49:16.000Z,10.9
2023-05-01T02:50:32.000Z,10.9
2023-05-01T02:51:48.000Z,10.9
2023-05-01T02:53:04.000Z,10.8
2023-05-01T02:54:20.000Z,10.9
2023-05-01T02:55:37.000Z,10.8
2023-05-01T02:56:52.000Z,10.9
2023-05-01T02:58:08.000Z,10.9
2023-05-01T02:59:24.000Z,10.9
2023-05-01T03:00:40.000Z,10.7
2023-05-01T03:01:56.000Z,10.7
2023-05-01T03:03:12.000Z,10.8
2023-05-01T03:04:28.000Z,10.8
2023-05-01T03:05:44.000Z,10.7
2023-05-01T03:07:00.000Z,10.6
2023-05-01T03:08:16.000Z,10.7
2023-05-01T03:09:33.000Z,10.8
2023-05-01T03:10:49.000Z,10.7
2023-05-01T03:12:05.000Z,10.7
2023-05-01T03:13:21.000Z,10.7
2023-05-01T03:14:37.000Z,10.7
2023-05-01T03:15:54.000Z,10.7
2023-05-01T03:17:10.000Z,10.7
2023-05-01T03:18:26.000Z,10.7
2023-05-01T03:19:41.000Z,10.7
2023-05-01T03:20:57.000Z,10.6
2023-05-01T03:22:13.052Z,10.6
2023-05-01T03:23:30.000Z,10.6
2023-05-01T03:24:46.000Z,10.6
2023-05-01T03:26:02.000Z,10.4
2023-05-01T03:27:18.000Z,10.5
2023-05-01T03:28:35.000Z,10.5
2023-05-01T03:29:51.000Z,10.6
2023-05-01T03:31:07.000Z,10.5
2023-05-01T03:32:23.000Z,10.5
2023-05-01T03:33:39.000Z,10.6
2023-05-01T03:34:54.956Z,10.5
2023-05-01T03:36:11.000Z,10.5
2023-05-01T03:37:26.353Z,10.5
2023-05-01T03:38:43.000Z,10.5
2023-05-01T03:39:59.000Z,10.4
2023-05-01T03:41:15.000Z,10.5
2023-05-01T03:42:32.000Z,10.6
2023-05-01T03:43:48.000Z,10.6
2023-05-01T03:45:04.000Z,10.6
2023-05-01T03:46:20.000Z,10.6
2023-05-01T03:47:36.000Z,10.6
2023-05-01T03:48:53.000Z,10.6
2023-05-01T03:50:09.000Z,10.5
2023-05-01T03:51:25.000Z,10.6
2023-05-01T03:52:40.000Z,10.5
2023-05-01T03:53:56.000Z,10.5
2023-05-01T03:55:13.000Z,10.6
2023-05-01T03:56:29.000Z,10.6
2023-05-01T03:57:45.000Z,10.5
2023-05-01T03:59:00.605Z,10.6
2023-05-01T04:00:16.795Z,10.5
2023-05-01T04:01:33.000Z,10.5
2023-05-01T04:02:50.000Z,10.6
2023-05-01T04:04:06.000Z,10.6
2023-05-01T04:05:22.000Z,10.6
2023-05-01T04:06:38.000Z,10.7
2023-05-01T04:07:54.000Z,10.7
2023-05-01T04:09:09.142Z,10.6
2023-05-01T04:10:26.000Z,10.6
2023-05-01T04:11:42.000Z,10.6
2023-05-01T04:12:57.712Z,10.7
2023-05-01T04:14:14.000Z,10.8
2023-05-01T04:15:31.000Z,10.8
2023-05-01T04:16:46.284Z,10.8
2023-05-01T04:18:03.000Z,10.8
2023-05-01T04:19:18.663Z,10.7
2023-05-01T04:20:35.000Z,10.8
2023-05-01T04:21:52.000Z,10.8
2023-05-01T04:23:08.000Z,10.8
2023-05-01T04:24:24.000Z,10.8
2023-05-01T04:25:38.629Z,10.8
2023-05-01T04:26:55.000Z,10.9
2023-05-01T04:28:11.010Z,10.8
2023-05-01T04:29:28.000Z,10.9
2023-05-01T04:30:44.000Z,10.8
2023-05-01T04:32:00.000Z,10.8
2023-05-01T04:33:16.000Z,10.8
2023-05-01T04:34:32.000Z,10.8
2023-05-01T04:35:49.000Z,10.8
2023-05-01T04:37:04.340Z,10.8
2023-05-01T04:38:21.000Z,10.9
2023-05-01T04:39:36.720Z,10.9
2023-05-01T04:40:53.000Z,11
2023-05-01T04:42:09.000Z,11
2023-05-01T04:43:25.000Z,11.2
2023-05-01T04:44:41.000Z,11.2
2023-05-01T04:45:57.000Z,11.3
2023-05-01T04:47:13.000Z,11.3
2023-05-01T04:48:30.000Z,11.4
2023-05-01T04:49:45.258Z,11.4
2023-05-01T04:51:02.000Z,11.5
2023-05-01T04:52:17.638Z,11.6
2023-05-01T04:53:33.829Z,11.6
2023-05-01T04:54:50.019Z,11.7
2023-05-01T04:56:07.000Z,11.8
2023-05-01T04:57:23.000Z,11.8
2023-05-01T04:58:38.000Z,11.9
2023-05-01T04:59:54.000Z,11.9
2023-05-01T05:01:10.000Z,12
2023-05-01T05:02:26.176Z,12
2023-05-01T05:03:42.365Z,12
2023-05-01T05:04:58.556Z,12.1
2023-05-01T05:06:15.000Z,11.9
2023-05-01T05:07:31.000Z,11.9
2023-05-01T05:08:47.125Z,11.7
2023-05-01T05:10:04.000Z,11.7
2023-05-01T05:11:20.000Z,11.8
2023-05-01T05:12:36.000Z,11.9
2023-05-01T05:13:52.000Z,12
2023-05-01T05:15:08.000Z,12.2
2023-05-01T05:16:24.000Z,12.4
2023-05-01T05:17:40.000Z,12.7
2023-05-01T05:18:56.000Z,12.8
2023-05-01T05:20:12.000Z,13
2023-05-01T05:21:28.043Z,13.1
2023-05-01T05:22:45.000Z,13.1
2023-05-01T05:24:01.000Z,13.1
2023-05-01T05:25:16.614Z,13
2023-05-01T05:26:33.000Z,12.9
2023-05-01T05:27:49.000Z,12.8
2023-05-01T05:29:06.000Z,12.7
2023-05-01T05:30:22.000Z,12.8
2023-05-01T05:31:37.000Z,12.8
2023-05-01T05:32:53.000Z,12.9
2023-05-01T05:34:08.958Z,13
2023-05-01T05:35:26.000Z,13.2
2023-05-01T05:36:42.000Z,13.2
2023-05-01T05:37:58.000Z,13.2
2023-05-01T05:39:14.000Z,13.1
2023-05-01T05:40:30.000Z,13.1
2023-05-01T05:41:47.000Z,13.1
2023-05-01T05:43:03.000Z,13.1
2023-05-01T05:44:19.000Z,13.1
2023-05-01T05:45:35.000Z,13.2
2023-05-01T05:46:51.000Z,13.3
2023-05-01T05:48:07.000Z,13.3
2023-05-01T05:49:23.000Z,13.3
2023-05-01T05:50:38.445Z,13.4
2023-05-01T05:51:55.000Z,13.4
2023-05-01T05:53:10.825Z,13.5
2023-05-01T05:54:28.000Z,13.6
2023-05-01T05:55:43.206Z,13.7
2023-05-01T05:57:00.000Z,13.8
2023-05-01T05:58:16.000Z,13.9
2023-05-01T05:59:32.000Z,14.1
2023-05-01T06:00:48.000Z,14.3
2023-05-01T06:02:04.157Z,14.5
2023-05-01T06:03:20.348Z,14.5
2023-05-01T06:04:36.000Z,14.5
2023-05-01T06:05:52.000Z,14.5
2023-05-01T06:07:08.000Z,14.6
2023-05-01T06:08:25.000Z,14.7
2023-05-01T06:09:40.313Z,14.7
2023-05-01T06:10:57.000Z,14.8
2023-05-01T06:12:12.692Z,14.8
2023-05-01T06:13:29.000Z,14.9
2023-05-01T06:14:46.000Z,14.9
2023-05-01T06:16:02.000Z,14.9
2023-05-01T06:17:18.000Z,15
2023-05-01T06:18:34.000Z,15.2
2023-05-01T06:19:50.000Z,15.3
2023-05-01T06:21:05.040Z,15.5
2023-05-01T06:22:22.000Z,15.6
2023-05-01T06:23:37.419Z,15.9
2023-05-01T06:24:54.000Z,16.2
2023-05-01T06:26:10.000Z,16.4
2023-05-01T06:27:25.988Z,16.5
2023-05-01T06:28:43.000Z,16.6
2023-05-01T06:29:59.000Z,16.8
2023-05-01T06:31:15.000Z,16.9
2023-05-01T06:32:31.000Z,17
2023-05-01T06:33:47.000Z,17.2
2023-05-01T06:35:03.127Z,17.4
2023-05-01T06:36:20.000Z,17.5
2023-05-01T06:37:35.000Z,17.6
2023-05-01T06:38:51.000Z,17.7
2023-05-01T06:40:07.000Z,17.7
2023-05-01T06:41:24.000Z,18
2023-05-01T06:42:40.000Z,18
2023-05-01T06:43:56.000Z,18
2023-05-01T06:45:12.000Z,18.1
2023-05-01T06:46:28.000Z,18
2023-05-01T06:47:44.042Z,17.5
2023-05-01T06:49:01.000Z,17.2
2023-05-01T06:50:17.000Z,16.8
2023-05-01T06:51:33.000Z,16.3
2023-05-01T06:52:49.000Z,16
2023-05-01T06:54:05.000Z,15.8
2023-05-01T06:55:21.000Z,16
2023-05-01T06:56:37.000Z,16.2
2023-05-01T06:57:53.000Z,16.3
2023-05-01T06:59:09.000Z,16.5
2023-05-01T07:00:24.955Z,16.6
2023-05-01T07:01:42.000Z,16.7
2023-05-01T07:02:58.000Z,16.8
2023-05-01T07:04:14.000Z,16.6
2023-05-01T07:05:30.000Z,16.3
2023-05-01T07:06:45.906Z,16.1
2023-05-01T07:08:03.000Z,16.3
2023-05-01T07:09:19.000Z,16.4
2023-05-01T07:10:34.000Z,16.5
2023-05-01T07:11:50.000Z,16.3
2023-05-01T07:13:06.000Z,16.4
2023-05-01T07:14:23.000Z,16.8
2023-05-01T07:15:39.000Z,17.1
2023-05-01T07:16:55.000Z,17.4
2023-05-01T07:18:10.000Z,17.6
2023-05-01T07:19:26.000Z,17.8
2023-05-01T07:20:43.000Z,18
2023-05-01T07:21:59.000Z,18.1
2023-05-01T07:23:15.000Z,18
2023-05-01T07:24:31.000Z,18.1
2023-05-01T07:25:46.793Z,18.1
2023-05-01T07:27:03.000Z,17.7
2023-05-01T07:28:20.000Z,17.8
2023-05-01T07:29:36.000Z,17.9
2023-05-01T07:30:52.000Z,18.1
2023-05-01T07:32:08.000Z,18.2
2023-05-01T07:33:24.000Z,18.2
2023-05-01T07:34:40.000Z,18.4
2023-05-01T07:35:56.000Z,18.6
2023-05-01T07:37:12.000Z,18.8
2023-05-01T07:38:27.702Z,18.9
2023-05-01T07:39:43.893Z,19.1
2023-05-01T07:41:00.082Z,19.2
2023-05-01T07:42:17.000Z,19.3
2023-05-01T07:43:33.000Z,19.3
2023-05-01T07:44:49.000Z,19.4
2023-05-01T07:46:05.000Z,19.5
2023-05-01T07:47:22.000Z,19.6
2023-05-01T07:48:38.000Z,19.6
2023-05-01T07:49:54.000Z,19.1
2023-05-01T07:51:09.000Z,18.8
2023-05-01T07:52:25.000Z,18.8
2023-05-01T07:53:42.000Z,18.8
2023-05-01T07:54:58.000Z,19.1
2023-05-01T07:56:14.000Z,19.2
2023-05-01T07:57:30.000Z,19.3
2023-05-01T07:58:46.000Z,19.4
2023-05-01T08:00:02.000Z,19.6
2023-05-01T08:01:18.142Z,19.8
2023-05-01T08:02:35.000Z,19.9
2023-05-01T08:03:51.000Z,19.9
2023-05-01T08:05:07.000Z,18.9
2023-05-01T08:06:23.000Z,18.7
2023-05-01T08:07:39.000Z,18.5
2023-05-01T08:08:55.000Z,18.5
2023-05-01T08:10:11.000Z,18.1
2023-05-01T08:11:27.000Z,18.1
2023-05-01T08:12:43.000Z,18.3
2023-05-01T08:14:00.000Z,18.3
2023-05-01T08:15:16.000Z,18.5
2023-05-01T08:16:32.000Z,18.8
2023-05-01T08:17:48.000Z,19.3
2023-05-01T08:19:04.000Z,19.7
2023-05-01T08:20:21.000Z,20
2023-05-01T08:21:36.203Z,20.2
2023-05-01T08:22:53.000Z,20.2
2023-05-01T08:24:08.000Z,20.2
2023-05-01T08:25:24.000Z,20.3
2023-05-01T08:26:40.000Z,20.4
2023-05-01T08:27:57.000Z,20.5
2023-05-01T08:29:13.000Z,20.6
2023-05-01T08:30:29.000Z,20.6
2023-05-01T08:31:45.000Z,20.8
2023-05-01T08:33:01.000Z,20.8
2023-05-01T08:34:18.000Z,20.9
2023-05-01T08:35:34.000Z,21.1
2023-05-01T08:36:50.000Z,21.3
2023-05-01T08:38:05.691Z,21.3
2023-05-01T08:39:21.881Z,21.2
2023-05-01T08:40:38.000Z,21.3
2023-05-01T08:41:53.278Z,21.5
2023-05-01T08:43:10.000Z,21.5
2023-05-01T08:44:25.658Z,21.6
2023-05-01T08:45:42.000Z,21.6
2023-05-01T08:46:59.000Z,21.5
2023-05-01T08:48:14.228Z,21.6
2023-05-01T08:49:31.000Z,21.6
2023-05-01T08:50:46.609Z,21.7
2023-05-01T08:52:02.798Z,21.7
2023-05-01T08:53:18.988Z,21.7
2023-05-01T08:54:36.000Z,21.6
2023-05-01T08:55:51.367Z,21.7
2023-05-01T08:57:07.000Z,21.1
2023-05-01T08:58:23.000Z,20.6
2023-05-01T08:59:39.000Z,20.3
2023-05-01T09:00:56.000Z,20.6
2023-05-01T09:02:12.000Z,20.8
2023-05-01T09:03:28.000Z,20.9
2023-05-01T09:04:44.000Z,21
2023-05-01T09:06:00.000Z,21.2
2023-05-01T09:07:16.092Z,21.4
2023-05-01T09:08:33.000Z,21.4
2023-05-01T09:09:48.472Z,21.4
2023-05-01T09:11:05.000Z,21.4
2023-05-01T09:12:21.000Z,21.5
2023-05-01T09:13:37.000Z,21.7
2023-05-01T09:14:53.000Z,21.5
2023-05-01T09:16:09.000Z,21
2023-05-01T09:17:25.000Z,20.5
2023-05-01T09:18:40.816Z,20.5
2023-05-01T09:19:58.000Z,20.9
2023-05-01T09:21:13.194Z,21.3
2023-05-01T09:22:29.384Z,21.7
2023-05-01T09:23:46.000Z,21.7
2023-05-01T09:25:02.000Z,21.4
2023-05-01T09:26:17.952Z,21.7
2023-05-01T09:27:34.141Z,21.9
2023-05-01T09:28:51.000Z,22.1
2023-05-01T09:30:05.536Z,22.2
2023-05-01T09:31:22.000Z,22.1
2023-05-01T09:32:37.914Z,22.3
2023-05-01T09:33:54.104Z,22.2
2023-05-01T09:35:11.000Z,22.3
2023-05-01T09:36:27.000Z,22.5
2023-05-01T09:37:43.000Z,22.9
2023-05-01T09:38:59.000Z,23.1
2023-05-01T09:40:16.000Z,23.4
2023-05-01T09:41:32.000Z,23.6
2023-05-01T09:42:48.000Z,23.9
2023-05-01T09:44:03.623Z,24.2
2023-05-01T09:45:19.813Z,24.5
2023-05-01T09:46:36.000Z,24.8
2023-05-01T09:47:51.210Z,25.1
2023-05-01T09:49:08.000Z,24.9
2023-05-01T09:50:24.000Z,25.1
2023-05-01T09:51:40.000Z,25.2
2023-05-01T09:52:56.000Z,25.1
2023-05-01T09:54:13.000Z,24.1
2023-05-01T09:55:29.000Z,23.3
2023-05-01T09:56:45.000Z,23.3
2023-05-01T09:58:00.729Z,23.6
2023-05-01T09:59:16.919Z,23.7
2023-05-01T10:00:34.000Z,24.1
2023-05-01T10:01:50.000Z,23.2
2023-05-01T10:03:05.000Z,22.9
2023-05-01T10:04:21.000Z,22.9
2023-05-01T10:05:36.886Z,23.3
2023-05-01T10:06:54.000Z,23.6
2023-05-01T10:08:10.000Z,23.5
2023-05-01T10:09:26.000Z,23.5
2023-05-01T10:10:42.000Z,23
2023-05-01T10:11:58.000Z,23.1
2023-05-01T10:13:14.026Z,23.5
2023-05-01T10:14:31.000Z,23.6
2023-05-01T10:15:46.404Z,23.6
2023-05-01T10:17:03.000Z,23.4
2023-05-01T10:18:19.000Z,23.8
2023-05-01T10:19:34.000Z,24.2
2023-05-01T10:20:50.175Z,24.5
2023-05-01T10:22:07.000Z,24.6
2023-05-01T10:23:22.552Z,24.8
2023-05-01T10:24:39.000Z,25
2023-05-01T10:25:55.000Z,24.4
2023-05-01T10:27:12.000Z,23.8
2023-05-01T10:28:28.000Z,23.8
2023-05-01T10:29:44.000Z,24
2023-05-01T10:31:00.000Z,24.4
2023-05-01T10:32:15.871Z,24.8
2023-05-01T10:33:33.000Z,25
2023-05-01T10:34:49.000Z,25.2
2023-05-01T10:36:04.000Z,25.2
2023-05-01T10:37:19.641Z,24.2
2023-05-01T10:38:36.000Z,24.1
2023-05-01T10:39:53.000Z,24.5
2023-05-01T10:41:09.000Z,24.9
2023-05-01T10:42:25.000Z,25.4
2023-05-01T10:43:41.000Z,25.3
2023-05-01T10:44:57.000Z,25.1
2023-05-01T10:46:13.000Z,25.6
2023-05-01T10:47:30.000Z,25.9
2023-05-01T10:48:46.000Z,26.2
2023-05-01T10:50:02.000Z,26.3
2023-05-01T10:51:18.000Z,26.2
2023-05-01T10:52:33.000Z,25.8
2023-05-01T10:53:50.000Z,25
2023-05-01T10:55:06.000Z,24.7
2023-05-01T10:56:22.000Z,25
2023-05-01T10:57:38.000Z,25.4
2023-05-01T10:58:53.863Z,25.9
2023-05-01T11:00:11.000Z,26.3
2023-05-01T11:01:27.000Z,26.8
2023-05-01T11:02:43.000Z,27
2023-05-01T11:03:59.000Z,27.6
2023-05-01T11:05:15.000Z,27.9
2023-05-01T11:06:31.000Z,28.2
2023-05-01T11:07:48.000Z,27.7
2023-05-01T11:09:03.000Z,27.8
2023-05-01T11:10:19.000Z,28
2023-05-01T11:11:35.000Z,28.5
2023-05-01T11:12:51.000Z,28.8
2023-05-01T11:14:08.000Z,28.6
2023-05-01T11:15:23.333Z,28.8
2023-05-01T11:16:40.000Z,28.8
2023-05-01T11:17:56.000Z,28.9
2023-05-01T11:19:12.000Z,28.4
2023-05-01T11:20:29.000Z,28
2023-05-01T11:21:44.275Z,27.5
2023-05-01T11:23:00.463Z,27.2
2023-05-01T11:24:17.000Z,27.6
2023-05-01T11:25:33.000Z,27.4
2023-05-01T11:26:49.000Z,27.1
2023-05-01T11:28:05.000Z,26.8
2023-05-01T11:29:20.423Z,26.4
2023-05-01T11:30:36.612Z,25.6
2023-05-01T11:31:52.800Z,25.2
2023-05-01T11:33:09.000Z,25.2
2023-05-01T11:34:24.199Z,25.9
2023-05-01T11:35:41.000Z,25.8
2023-05-01T11:36:57.000Z,25.3
2023-05-01T11:38:13.000Z,24.9
2023-05-01T11:39:29.000Z,23.9
2023-05-01T11:40:45.143Z,23.3
2023-05-01T11:42:02.000Z,23.2
2023-05-01T11:43:18.000Z,22.7
2023-05-01T11:44:34.000Z,22.3
2023-05-01T11:45:49.898Z,22.3
2023-05-01T11:47:07.000Z,23
2023-05-01T11:48:23.000Z,23.4
2023-05-01T11:49:37.480Z,23.5
2023-05-01T11:50:54.000Z,24.3
2023-05-01T11:52:10.000Z,24.9
2023-05-01T11:53:27.000Z,25.5
2023-05-01T11:54:43.000Z,25.5
2023-05-01T11:55:59.000Z,25.2
2023-05-01T11:57:15.000Z,25.7
2023-05-01T11:58:31.000Z,26
2023-05-01T11:59:47.000Z,26
2023-05-01T12:01:04.000Z,25.4
2023-05-01T12:02:20.000Z,24.8
2023-05-01T12:03:36.000Z,23.2
2023-05-01T12:04:52.000Z,22.6
2023-05-01T12:06:07.000Z,22.8
2023-05-01T12:07:24.000Z,23.6
2023-05-01T12:08:40.000Z,24.6
2023-05-01T12:09:56.000Z,25.2
2023-05-01T12:11:12.000Z,25
2023-05-01T12:12:27.893Z,25.6
2023-05-01T12:13:45.000Z,26.6
2023-05-01T12:15:01.000Z,27.2
2023-05-01T12:16:17.000Z,27.3
2023-05-01T12:17:33.000Z,26.8
2023-05-01T12:18:49.000Z,26.3
2023-05-01T12:20:06.000Z,25.9
2023-05-01T12:21:22.000Z,26.2
2023-05-01T12:22:36.421Z,26.4
2023-05-01T12:23:53.000Z,27.1
2023-05-01T12:25:09.000Z,27.4
2023-05-01T12:26:25.000Z,26.4
2023-05-01T12:27:42.000Z,25.8
2023-05-01T12:28:58.000Z,24.6
2023-05-01T12:30:14.000Z,25
2023-05-01T12:31:30.000Z,25.3
2023-05-01T12:32:45.931Z,25.4
2023-05-01T12:34:03.000Z,25.5
2023-05-01T12:35:19.000Z,25.5
2023-05-01T12:36:35.000Z,25.1
2023-05-01T12:37:50.686Z,24.2
2023-05-01T12:39:05.891Z,23.9
2023-05-01T12:40:23.000Z,24
2023-05-01T12:41:38.268Z,24.1
2023-05-01T12:42:55.000Z,23.9
2023-05-01T12:44:11.000Z,23.1
2023-05-01T12:45:27.000Z,23.3
2023-05-01T12:46:44.000Z,23.3
2023-05-01T12:47:59.212Z,23.8
2023-05-01T12:49:16.000Z,23.9
2023-05-01T12:50:31.589Z,24.5
2023-05-01T12:51:48.000Z,25.1
2023-05-01T12:53:03.968Z,26.1
2023-05-01T12:54:21.000Z,26.6
2023-05-01T12:55:36.000Z,27.3
2023-05-01T12:56:52.000Z,28.1
2023-05-01T12:58:08.000Z,27.1
2023-05-01T12:59:24.000Z,25.7
2023-05-01T13:00:41.000Z,25
2023-05-01T13:01:56.304Z,25
2023-05-01T13:03:13.000Z,25.4
2023-05-01T13:04:28.682Z,26
2023-05-01T13:05:45.000Z,25.7
2023-05-01T13:07:02.000Z,25.3
2023-05-01T13:08:18.000Z,25.3
2023-05-01T13:09:33.437Z,25.7
2023-05-01T13:10:50.000Z,25.7
2023-05-01T13:12:05.000Z,25.1
2023-05-01T13:13:22.000Z,24.8
2023-05-01T13:14:38.000Z,23.9
2023-05-01T13:15:54.000Z,23.3
2023-05-01T13:17:10.000Z,22.7
2023-05-01T13:18:26.000Z,22.3
2023-05-01T13:19:42.000Z,22.2
2023-05-01T13:20:59.000Z,22.3
2023-05-01T13:22:15.000Z,22.5
2023-05-01T13:23:31.000Z,22.2
2023-05-01T13:24:47.000Z,22.5
2023-05-01T13:26:03.000Z,22.9
2023-05-01T13:27:20.000Z,22.8
2023-05-01T13:28:35.000Z,22.9
2023-05-01T13:29:51.000Z,22.7
2023-05-01T13:31:07.000Z,22.9
2023-05-01T13:32:23.000Z,23.2
2023-05-01T13:33:40.000Z,23.3
2023-05-01T13:34:56.000Z,23.5
2023-05-01T13:36:12.000Z,23.8
2023-05-01T13:37:28.000Z,23.9
2023-05-01T13:38:44.000Z,24.2
2023-05-01T13:40:00.000Z,24.5
2023-05-01T13:41:17.000Z,24.7
2023-05-01T13:42:33.000Z,24.5
2023-05-01T13:43:49.000Z,23.4
2023-05-01T13:45:04.000Z,22.6
2023-05-01T13:46:19.955Z,22.6
2023-05-01T13:47:37.000Z,22.4
2023-05-01T13:48:52.333Z,22.2
2023-05-01T13:50:08.521Z,22.4
2023-05-01T13:51:25.000Z,22.9
2023-05-01T13:52:41.000Z,23.2
2023-05-01T13:53:58.000Z,23.5
2023-05-01T13:55:14.000Z,23.6
2023-05-01T13:56:30.000Z,23.6
2023-05-01T13:57:46.000Z,23.9
2023-05-01T13:59:02.000Z,23.8
2023-05-01T14:00:19.000Z,23.2
2023-05-01T14:01:33.234Z,23
2023-05-01T14:02:50.000Z,23.4
2023-05-01T14:04:06.000Z,23.9
2023-05-01T14:05:22.000Z,24.2
2023-05-01T14:06:38.000Z,24
2023-05-01T14:07:55.000Z,23.6
2023-05-01T14:09:10.366Z,23.4
2023-05-01T14:10:27.000Z,22.9
2023-05-01T14:11:43.000Z,22.3
2023-05-01T14:12:59.000Z,21.9
2023-05-01T14:14:16.000Z,21.4
2023-05-01T14:15:32.000Z,21.3
2023-05-01T14:16:48.000Z,21.3
2023-05-01T14:18:02.704Z,21.7
2023-05-01T14:19:19.000Z,21.7
2023-05-01T14:20:36.000Z,21.9
2023-05-01T14:21:52.000Z,22.2
2023-05-01T14:23:08.000Z,22.4
2023-05-01T14:24:24.000Z,22.6
2023-05-01T14:25:40.000Z,23
2023-05-01T14:26:57.000Z,23.2
2023-05-01T14:28:13.000Z,22.8
2023-05-01T14:29:28.400Z,22.4
2023-05-01T14:30:45.000Z,22.2
2023-05-01T14:32:01.000Z,22.4
2023-05-01T14:33:16.965Z,22.5
2023-05-01T14:34:33.000Z,22.9
2023-05-01T14:35:49.000Z,23.1
2023-05-01T14:37:04.545Z,22.5
2023-05-01T14:38:21.000Z,22.5
2023-05-01T14:39:36.920Z,22.6
2023-05-01T14:40:54.000Z,22.6
2023-05-01T14:42:10.000Z,23.1
2023-05-01T14:43:26.000Z,22.6
2023-05-01T14:44:42.000Z,22.3
2023-05-01T14:45:57.862Z,22.2
2023-05-01T14:47:15.000Z,22.1
2023-05-01T14:48:31.000Z,22.1
2023-05-01T14:49:47.000Z,22.5
2023-05-01T14:51:01.632Z,22.7
2023-05-01T14:52:17.820Z,22.6
2023-05-01T14:53:35.000Z,22.4
2023-05-01T14:54:51.000Z,22.3
2023-05-01T14:56:07.000Z,22.5
2023-05-01T14:57:23.000Z,22.7
2023-05-01T14:58:39.000Z,22.4
2023-05-01T14:59:54.951Z,22.4
2023-05-01T15:01:11.139Z,22.8
2023-05-01T15:02:28.000Z,22.9
2023-05-01T15:03:44.000Z,23.3
2023-05-01T15:05:00.000Z,23.3
2023-05-01T15:06:16.000Z,23.2
2023-05-01T15:07:32.000Z,23.1
2023-05-01T15:08:48.000Z,22.9
2023-05-01T15:10:04.000Z,23.2
2023-05-01T15:11:20.000Z,23.4
2023-05-01T15:12:36.000Z,23.6
2023-05-01T15:13:53.000Z,22.9
2023-05-01T15:15:08.224Z,22.6
2023-05-01T15:16:25.000Z,22.9
2023-05-01T15:17:41.000Z,22.9
2023-05-01T15:18:56.788Z,22.5
2023-05-01T15:20:13.000Z,22.1
2023-05-01T15:21:30.000Z,22
2023-05-01T15:22:46.000Z,21.9
2023-05-01T15:24:01.000Z,22
2023-05-01T15:25:17.000Z,21.9
2023-05-01T15:26:32.933Z,21.8
2023-05-01T15:27:50.000Z,21.9
2023-05-01T15:29:06.000Z,21.7
2023-05-01T15:30:22.000Z,21.8
2023-05-01T15:31:37.687Z,21.6
2023-05-01T15:32:54.000Z,21.6
2023-05-01T15:34:11.000Z,21.6
2023-05-01T15:35:27.000Z,21.8
2023-05-01T15:36:43.000Z,21.6
2023-05-01T15:37:59.000Z,21.6
2023-05-01T15:39:15.000Z,21.6
2023-05-01T15:40:30.024Z,21.6
2023-05-01T15:41:47.000Z,21.6
2023-05-01T15:43:03.000Z,21.9
2023-05-01T15:44:18.591Z,22.5
2023-05-01T15:45:35.000Z,22.8
2023-05-01T15:46:50.969Z,22.8
2023-05-01T15:48:07.000Z,23.1
2023-05-01T15:49:22.368Z,23.2
2023-05-01T15:50:39.000Z,23.6
2023-05-01T15:51:54.743Z,23.9
2023-05-01T15:53:11.000Z,23.9
2023-05-01T15:54:28.000Z,24
2023-05-01T15:55:44.000Z,24.1
2023-05-01T15:56:59.496Z,23.9
2023-05-01T15:58:15.685Z,23.9
2023-05-01T15:59:31.873Z,24
2023-05-01T16:00:49.000Z,24.1
2023-05-01T16:02:05.000Z,24.4
2023-05-01T16:03:21.000Z,24.7
2023-05-01T16:04:36.000Z,24.9
2023-05-01T16:05:51.831Z,25
2023-05-01T16:07:09.000Z,24.3
2023-05-01T16:08:25.000Z,24.3
2023-05-01T16:09:41.000Z,24
2023-05-01T16:10:57.000Z,23.9
2023-05-01T16:12:13.000Z,24.1
2023-05-01T16:13:29.000Z,24.2
2023-05-01T16:14:46.000Z,23.9
2023-05-01T16:16:02.000Z,23.8
2023-05-01T16:17:18.000Z,23.8
2023-05-01T16:18:34.000Z,23.5
2023-05-01T16:19:49.904Z,23.4
2023-05-01T16:21:05.108Z,23.3
2023-05-01T16:22:22.000Z,23.3
2023-05-01T16:23:37.485Z,23.2
2023-05-01T16:24:54.000Z,23.1
2023-05-01T16:26:10.000Z,22.8
2023-05-01T16:27:27.000Z,22.4
2023-05-01T16:28:43.000Z,22.4
2023-05-01T16:29:58.425Z,22.4
2023-05-01T16:31:15.000Z,22.5
2023-05-01T16:32:30.803Z,22.3
2023-05-01T16:33:47.000Z,22.2
2023-05-01T16:35:04.000Z,21.9
2023-05-01T16:36:19.370Z,21.3
2023-05-01T16:37:35.000Z,20.7
2023-05-01T16:38:51.000Z,19.7
2023-05-01T16:40:07.000Z,19.5
2023-05-01T16:41:24.000Z,18.9
2023-05-01T16:42:39.330Z,18.5
2023-05-01T16:43:56.000Z,18.5
2023-05-01T16:45:12.000Z,18.7
2023-05-01T16:46:28.000Z,18.7
2023-05-01T16:47:44.083Z,18.7
2023-05-01T16:49:00.271Z,18.7
2023-05-01T16:50:16.460Z,18.5
2023-05-01T16:51:33.000Z,18.6
2023-05-01T16:52:48.837Z,18.5
2023-05-01T16:54:04.041Z,18.3
2023-05-01T16:55:21.000Z,18
2023-05-01T16:56:37.000Z,17.6
2023-05-01T16:57:53.000Z,17.2
2023-05-01T16:59:09.000Z,16.9